Terminal Aerodrome Forecast
Issued by NWS

Home | Current Version | Previous Version | Text Only | Print | Product List | Glossary Off
Versions: 1 2 3 4 5 6 7 8 9 10 11 12 13 14 15 16 17 18

000
FTUS43 KFGF 061720
TAFBJI
TAF
KBJI 061720Z 0618/0718 20016G20KT 2SM -SN OVC015
      TEMPO 0618/0621 1SM -SN BKN008
     FM062100 23017G24KT 2SM -SN OVC010
     FM070100 27020G25KT 3SM -SN BLSN OVC010
     FM070700 27018KT 2SM -SN BLSN OVC010
     FM070800 28017KT 3SM BLSN OVC010
     FM071200 28014G23KT P6SM OVC015=

USA.gov is the U.S. government's official web portal to all federal, state and local government web resources and services.